Appleton, Colorado
Current Conditions -  °F | °C
As of 1:53 AM on Saturday 29 Nov 2014 (Local Time) from KGJT Reporting Station
Clear Clear  
Wind Chill: 27°   Ceiling: Unl
Heat Index: 27°   Visibility: 10mi
Dew Point: 20°   Wind: 3mph
Humidity: 75%   Direction: 350°N
Pressure: 29.93"   Gusts: NA
Location:  39.1857°N, 108.6°W
Report Text: KGJT 290853Z AUTO 35003KT 10SM CLR M03/M07 A2993 RMK AO2 SLP132 T10281067 55007 $
Loading
Personal Weather Stations






























Interactive Weather Map New forecast layout! Learn more

10-Day Weather Forecast

Advertisements
Track Severe Weather on mobile